Flight Track Log - Related Links

Times and Time Zones

All times are in EDT time to prevent confusion due to time zone crossing. See the ASQ5311 flight status page for this flight to view local times or setup timezone preferences in your user account.

Time Position Orientation Groundspeed Altitude Reporting Facility
EDT Latitude Longitude Course Direction KTS MPH feet Rate Location/Type
Fri 05:31:04 PM 41.0233 -85.2306 38° Northeast 177 204 4,000  Level Chicago Center
Fri 05:32:06 PM 41.0606 -85.1681 52° Northeast 251 289 7,000 2,710 Climbing Chicago Center
Fri 05:33:08 PM 41.0925 -85.0706 66° East 290 334 9,600 1,872 Climbing Chicago Center
Fri 05:34:11 PM 41.1603 -84.9917 41° Northeast 327 376 10,900 1,152 Climbing Chicago Center
Fri 05:35:13 PM 41.2592 -84.8853 39° Northeast 381 438 12,000 532 Climbing Chicago Center
Fri 05:36:00 PM 41.2963 -84.8272 38° Northeast  Level FlightAware Approximate
Fri 05:36:15 PM 41.3469 -84.7925 38° Northeast 401 461 12,000  Level Chicago Center
Fri 05:37:11 PM 41.4231 -84.6881 46° Northeast 400 460 12,000  Level Cleveland Center
Fri 05:38:13 PM 41.4953 -84.5736 50° Northeast 400 460 12,000  Level Cleveland Center
Fri 05:39:16 PM 41.5658 -84.4608 50° Northeast 400 460 12,000  Level Cleveland Center
Fri 05:40:18 PM 41.6356 -84.3467 51° Northeast 400 460 12,000  Level Cleveland Center
Fri 05:41:12 PM 41.7072 -84.2319 50° Northeast 402 463 12,000  Level Cleveland Center
Fri 05:42:07 PM 41.7731 -84.1242 51° Northeast 403 464 12,000  Level Cleveland Center
Fri 05:42:22 PM 41.7789 -84.1147 50° Northeast 403 464 12,000  Level Cleveland Center
Fri 05:43:08 PM 41.8389 -84.0164 51° Northeast 333 383 12,000 -194 Level Cleveland Center
Fri 05:43:24 PM 41.8517 -83.9883 59° Northeast 348 400 11,800 -1,612 Descending Cleveland Center
Fri 05:44:15 PM 41.8764 -83.8931 71° East 316 364 10,200 -1,742 Descending Cleveland Center
Fri 05:44:26 PM 41.8811 -83.8792 65° Northeast 316 364 10,000 -2,111 Descending Cleveland Center
Fri 05:45:09 PM 41.9072 -83.7994 66° East 302 348 8,300 -1,935 Descending Cleveland Center
Fri 05:45:28 PM 41.9147 -83.7767 66° East 306 352 8,000 -1,636 Descending Cleveland Center
Fri 05:46:04 PM 41.9378 -83.7083 66° East 284 327 6,800 -1,742 Descending Cleveland Center
Fri 05:46:30 PM 41.9481 -83.6800 64° Northeast 291 335 6,200 -2,066 Descending Cleveland Center
Fri 05:47:05 PM 41.9706 -83.6147 65° Northeast 274 315 4,700 -1,935 Descending Cleveland Center
Fri 05:47:32 PM 41.9792 -83.5900 65° Northeast 276 318 4,200 -627 Descending Cleveland Center
Fri 05:48:12 PM 42.0092 -83.5250 58° Northeast 213 245 4,000 -194 Descending Cleveland Center
Fri 05:48:34 PM 42.0236 -83.5122 33° Northeast 215 247 4,000  Level Cleveland Center
Fri 05:49:13 PM 42.0558 -83.4922 25° Northeast 192 221 4,000 -286 Level Cleveland Center
Fri 05:49:37 PM 42.0725 -83.4803 28° Northeast 200 230 3,700 -1,082 Descending Cleveland Center
Fri 05:50:14 PM 42.1050 -83.4542 31° Northeast 191 220 2,900 -1,065 Descending Cleveland Center
Fri 05:50:39 PM 42.1200 -83.4450 24° Northeast 199 229 2,600 -794 Descending Cleveland Center
Fri 05:51:22 PM 42.1492 -83.4239 28° Northeast 132 152 2,000 -774 Descending Cleveland Center
Fri 05:51:41 PM 42.1542 -83.4192 35° Northeast 164 189 1,800 -800 Descending Cleveland Center
Fri 05:52:22 PM 42.1806 -83.4000 28° Northeast 134 154 1,200 -677 Descending Cleveland Center
Fri 05:52:43 PM 42.1861 -83.3953 32° Northeast 144 166 1,100 -289 Descending Cleveland Center
Fri 05:53:45 PM 42.2261 -83.3667 28° Northeast 141 162 800 -290 Descending Cleveland Center
Fri 05:55:00 PM 42.2124 -83.3534 144° Southeast  Level Estimated
Fri 06:02:00 PM 42.2124 -83.3534 North  Level Estimated

Login

Don't have an account? Register now (free) for customized features, flight alerts, and more!